Time;durP1;ratioP1;P1;durP2;ratioP2;P2;SDS_P1;SDS_P2;PMS_P1;PMS_P2;Temp;Humidity;BMP_temperature;BMP_pressure;BME280_temperature;BME280_humidity;BME280_pressure;Samples;Min_cycle;Max_cycle;Signal;HPM_P1;HPM_P2
2023/06/25 00:01:18;;;;;;;13.97;12.47;;;;;;;19.67;100.00;102182.59;5048797;28;20201;-71
2023/06/25 00:03:44;;;;;;;13.93;11.87;;;;;;;19.60;100.00;102184.31;5054457;28;20185;-71
2023/06/25 00:06:10;;;;;;;12.87;11.60;;;;;;;19.51;100.00;102184.28;5051787;28;20210;-71
2023/06/25 00:08:35;;;;;;;12.93;11.07;;;;;;;19.48;100.00;102180.78;5053643;28;20243;-70
2023/06/25 00:11:01;;;;;;;11.87;10.60;;;;;;;19.40;100.00;102183.31;5048790;28;20281;-71
2023/06/25 00:13:27;;;;;;;11.57;10.47;;;;;;;19.41;100.00;102184.22;5045850;28;20182;-71
2023/06/25 00:15:52;;;;;;;12.13;10.93;;;;;;;19.34;100.00;102185.91;5047728;28;20749;-71
2023/06/25 00:18:18;;;;;;;12.27;10.97;;;;;;;19.29;100.00;102177.22;5054193;28;20201;-70
2023/06/25 00:20:46;;;;;;;12.60;10.83;;;;;;;19.32;100.00;102178.97;5056584;28;20189;-71
2023/06/25 00:23:12;;;;;;;12.87;11.30;;;;;;;19.23;100.00;102181.50;5049758;28;20221;-71
2023/06/25 00:25:38;;;;;;;14.17;11.60;;;;;;;19.19;100.00;102178.00;5050296;28;20196;-71
2023/06/25 00:28:08;;;;;;;13.53;10.77;;;;;;;19.17;100.00;102176.25;5044669;28;20697;-71
2023/06/25 00:30:37;;;;;;;13.43;10.93;;;;;;;19.13;100.00;102174.50;5041141;28;20202;-71
2023/06/25 00:33:02;;;;;;;14.67;11.10;;;;;;;19.10;100.00;102174.47;5051204;28;20220;-71
2023/06/25 00:35:43;;;;;;;12.20;10.90;;;;;;;19.03;100.00;102170.97;5069242;28;20222;-71
2023/06/25 00:38:09;;;;;;;12.47;11.17;;;;;;;19.01;100.00;102171.81;5062243;28;20567;-71
2023/06/25 00:40:35;;;;;;;13.63;11.33;;;;;;;18.99;100.00;102173.53;5047555;28;20200;-71
2023/06/25 00:43:03;;;;;;;14.83;10.93;;;;;;;18.94;100.00;102168.34;5044320;28;20193;-71
2023/06/25 00:45:28;;;;;;;14.37;11.00;;;;;;;18.94;100.00;102168.34;5047496;28;20271;-71
2023/06/25 00:47:55;;;;;;;12.63;11.33;;;;;;;18.90;100.00;102161.38;5056074;28;20193;-73
2023/06/25 00:50:21;;;;;;;12.17;10.77;;;;;;;18.87;100.00;102157.88;5048819;28;20573;-71
2023/06/25 00:52:51;;;;;;;12.60;11.23;;;;;;;18.83;100.00;102163.94;5054150;28;20196;-71
2023/06/25 00:55:17;;;;;;;12.47;11.17;;;;;;;18.80;100.00;102162.16;5045791;28;20774;-71
2023/06/25 00:57:43;;;;;;;12.63;10.63;;;;;;;18.76;100.00;102168.22;5046053;28;20193;-71
2023/06/25 01:00:14;;;;;;;12.50;10.93;;;;;;;18.71;100.00;102164.72;5044008;28;20198;-71
2023/06/25 01:03:03;;;;;;;12.13;10.50;;;;;;;18.69;100.00;102162.94;5050392;28;20192;-72
2023/06/25 01:05:31;;;;;;;13.33;10.97;;;;;;;18.68;100.00;102161.19;5065219;28;20213;-72
2023/06/25 01:07:59;;;;;;;14.03;11.20;;;;;;;18.66;100.00;102155.16;5062004;28;20911;-72
2023/06/25 01:10:25;;;;;;;13.83;10.93;;;;;;;18.57;100.00;102166.31;5046649;28;20197;-72
2023/06/25 01:12:52;;;;;;;14.07;11.03;;;;;;;18.57;100.00;102157.66;5049974;28;20236;-72
2023/06/25 01:15:18;;;;;;;12.43;11.23;;;;;;;18.49;100.00;102146.34;5056028;28;20214;-72
2023/06/25 01:17:47;;;;;;;12.23;10.77;;;;;;;18.47;100.00;102156.72;5058097;28;20204;-72
2023/06/25 01:20:13;;;;;;;12.47;11.27;;;;;;;18.40;100.00;102154.94;5050531;28;20194;-72
2023/06/25 01:22:40;;;;;;;11.73;10.03;;;;;;;18.39;100.00;102150.63;5053474;28;20209;-72
2023/06/25 01:25:07;;;;;;;12.40;11.17;;;;;;;18.33;100.00;102147.94;5046095;28;20185;-72
2023/06/25 01:27:34;;;;;;;14.17;11.20;;;;;;;18.37;100.00;102156.66;5045349;28;20198;-72
2023/06/25 01:30:00;;;;;;;12.50;10.93;;;;;;;18.31;100.00;102147.03;5045354;28;20267;-72
2023/06/25 01:32:25;;;;;;;12.30;11.03;;;;;;;18.29;100.00;102151.31;5064229;28;20328;-72
2023/06/25 01:34:51;;;;;;;12.37;11.07;;;;;;;18.30;100.00;102147.91;5055194;28;20284;-72
2023/06/25 01:37:17;;;;;;;12.77;11.43;;;;;;;18.26;100.00;102145.25;5050012;28;20251;-71
2023/06/25 01:39:50;;;;;;;12.53;11.17;;;;;;;18.23;100.00;102142.66;5065465;28;20184;-72
2023/06/25 01:42:15;;;;;;;14.00;11.03;;;;;;;18.23;100.00;102148.69;5058194;28;20198;-72
2023/06/25 01:44:41;;;;;;;13.17;10.77;;;;;;;18.21;100.00;102152.13;5049037;28;20674;-72
2023/06/25 01:47:06;;;;;;;11.90;10.70;;;;;;;18.14;100.00;102151.19;5039750;28;20659;-72
2023/06/25 01:49:32;;;;;;;14.70;12.00;;;;;;;18.15;100.00;102150.34;5046823;28;20668;-71
2023/06/25 01:51:57;;;;;;;12.80;11.13;;;;;;;18.11;100.00;102145.13;5054133;28;20197;-73
2023/06/25 01:54:23;;;;;;;15.13;12.60;;;;;;;18.05;100.00;102142.47;5041670;28;20678;-72
2023/06/25 01:56:48;;;;;;;13.07;11.07;;;;;;;18.03;100.00;102138.97;5050242;28;20209;-72
2023/06/25 01:59:14;;;;;;;15.07;12.30;;;;;;;18.03;100.00;102149.34;5039955;28;20190;-72
2023/06/25 02:01:40;;;;;;;16.23;11.33;;;;;;;17.98;100.00;102143.25;5039125;28;20193;-72
2023/06/25 02:04:05;;;;;;;14.50;11.33;;;;;;;17.96;100.00;102137.19;5049961;28;20233;-72
2023/06/25 02:06:31;;;;;;;13.83;12.13;;;;;;;17.94;100.00;102144.06;5063486;28;20237;-72
2023/06/25 02:08:56;;;;;;;13.30;11.53;;;;;;;17.89;100.00;102136.25;5042879;28;20294;-71
2023/06/25 02:11:22;;;;;;;14.27;11.60;;;;;;;17.84;100.00;102137.06;5049405;28;20193;-72
2023/06/25 02:13:47;;;;;;;12.07;10.77;;;;;;;17.81;100.00;102140.50;5042731;28;20273;-72
2023/06/25 02:16:13;;;;;;;13.23;11.27;;;;;;;17.86;100.00;102136.22;5039002;28;20313;-72
2023/06/25 02:18:38;;;;;;;14.60;10.30;;;;;;;17.86;100.00;102136.22;5056700;28;20231;-72
2023/06/25 02:21:04;;;;;;;12.60;10.33;;;;;;;17.81;100.00;102129.25;5053187;28;20670;-72
2023/06/25 02:23:29;;;;;;;12.50;11.20;;;;;;;17.78;100.00;102129.22;5051003;28;20200;-71
2023/06/25 02:25:55;;;;;;;12.40;10.87;;;;;;;17.77;100.00;102130.09;5045469;28;20683;-72
2023/06/25 02:28:20;;;;;;;13.87;10.97;;;;;;;17.75;100.00;102131.78;5037945;28;20225;-72
2023/06/25 02:30:46;;;;;;;11.47;10.30;;;;;;;17.72;100.00;102135.19;5041020;28;20229;-72
2023/06/25 02:33:12;;;;;;;12.20;10.97;;;;;;;17.67;100.00;102130.81;5050309;28;20202;-73
2023/06/25 02:35:37;;;;;;;11.90;10.63;;;;;;;17.69;100.00;102136.91;5041101;28;20217;-72
2023/06/25 02:38:03;;;;;;;12.53;11.17;;;;;;;17.65;100.00;102127.34;5032975;28;20226;-72
2023/06/25 02:40:28;;;;;;;13.10;10.83;;;;;;;17.64;100.00;102128.22;5051347;28;20197;-72
2023/06/25 02:42:55;;;;;;;13.40;10.77;;;;;;;17.64;100.00;102129.06;5034245;28;20189;-72
2023/06/25 02:45:21;;;;;;;13.53;11.37;;;;;;;17.63;100.00;102129.91;5034955;28;20214;-72
2023/06/25 02:47:46;;;;;;;14.10;11.87;;;;;;;17.60;100.00;102124.69;5043252;28;20237;-72
2023/06/25 02:50:12;;;;;;;13.20;11.80;;;;;;;17.58;100.00;102125.53;5036825;28;20190;-72
2023/06/25 02:52:38;;;;;;;12.03;10.77;;;;;;;17.56;100.00;102122.94;5038744;28;20198;-72
2023/06/25 02:55:04;;;;;;;13.47;12.07;;;;;;;17.55;100.00;102123.78;5048041;28;20263;-72
2023/06/25 02:57:30;;;;;;;15.87;13.03;;;;;;;17.53;100.00;102124.59;5035742;28;20202;-72
2023/06/25 02:59:56;;;;;;;15.43;12.83;;;;;;;17.52;100.00;102112.50;5037931;28;20259;-73
2023/06/25 03:02:22;;;;;;;13.90;12.40;;;;;;;17.49;100.00;102121.13;5041347;28;20210;-73
2023/06/25 03:04:48;;;;;;;17.20;13.43;;;;;;;17.51;100.00;102115.97;5042442;28;20194;-72
2023/06/25 03:07:13;;;;;;;14.67;12.57;;;;;;;17.53;100.00;102114.25;5037654;28;20297;-72
2023/06/25 03:09:39;;;;;;;14.13;12.07;;;;;;;17.55;100.00;102118.59;5038629;28;20208;-73
2023/06/25 03:12:05;;;;;;;14.30;12.33;;;;;;;17.50;100.00;102107.31;5035069;28;20198;-72
2023/06/25 03:14:30;;;;;;;13.67;12.03;;;;;;;17.50;100.00;102112.50;5034608;28;20252;-73
2023/06/25 03:16:56;;;;;;;13.17;11.60;;;;;;;17.44;100.00;102102.06;5039561;28;20284;-73
2023/06/25 03:19:22;;;;;;;14.53;12.07;;;;;;;17.48;100.00;102096.06;5040296;28;20208;-73
2023/06/25 03:21:47;;;;;;;15.83;12.93;;;;;;;17.50;100.00;102107.31;5041856;28;20193;-73
2023/06/25 03:24:14;;;;;;;17.03;12.83;;;;;;;17.50;100.00;102109.03;5049543;28;20308;-73
2023/06/25 03:26:42;;;;;;;13.93;11.70;;;;;;;17.50;100.00;102104.72;5039700;28;20279;-72
2023/06/25 03:29:08;;;;;;;15.03;12.17;;;;;;;17.52;100.00;102108.22;5052228;28;20190;-72
2023/06/25 03:31:33;;;;;;;15.40;12.80;;;;;;;17.54;100.00;102105.66;5037850;28;20225;-73
2023/06/25 03:34:01;;;;;;;19.27;13.53;;;;;;;17.57;100.00;102103.06;5039811;28;20796;-73
2023/06/25 03:36:27;;;;;;;17.50;13.80;;;;;;;17.59;100.00;102099.63;5049714;28;20226;-72
2023/06/25 03:38:52;;;;;;;16.37;14.57;;;;;;;17.62;100.00;102094.50;5040726;28;20190;-73
2023/06/25 03:41:18;;;;;;;15.77;14.17;;;;;;;17.66;100.00;102106.66;5037843;28;20542;-73
2023/06/25 03:43:44;;;;;;;17.50;14.87;;;;;;;17.68;100.00;102098.91;5023179;28;20193;-73
2023/06/25 03:46:10;;;;;;;16.23;14.53;;;;;;;17.69;100.00;102093.69;5035666;28;20210;-72
2023/06/25 03:48:40;;;;;;;16.90;14.63;;;;;;;17.70;100.00;102092.00;5051202;28;20281;-73
2023/06/25 03:51:06;;;;;;;17.57;15.20;;;;;;;17.69;100.00;102096.28;5039138;28;20233;-73
2023/06/25 03:53:32;;;;;;;15.90;14.20;;;;;;;17.74;100.00;102098.94;5038652;28;20230;-73
2023/06/25 03:55:57;;;;;;;17.77;15.77;;;;;;;17.78;100.00;102098.97;5043962;28;20220;-72
2023/06/25 03:58:22;;;;;;;16.90;14.90;;;;;;;17.82;100.00;102098.16;5039931;28;20690;-73
2023/06/25 04:00:48;;;;;;;17.07;15.17;;;;;;;17.84;100.00;102096.47;5046151;28;20612;-72
2023/06/25 04:03:14;;;;;;;18.63;15.03;;;;;;;17.89;100.00;102094.78;5044038;28;20547;-72
2023/06/25 04:05:39;;;;;;;18.60;16.70;;;;;;;17.91;100.00;102100.84;5054288;28;20690;-73
2023/06/25 04:08:04;;;;;;;18.67;16.50;;;;;;;17.96;100.00;102101.75;5038995;28;20241;-73
2023/06/25 04:10:30;;;;;;;21.13;16.83;;;;;;;18.02;100.00;102101.84;5054349;28;20194;-72
2023/06/25 04:12:56;;;;;;;18.90;16.90;;;;;;;18.06;100.00;102095.78;5034136;28;20197;-73
2023/06/25 04:15:21;;;;;;;17.67;15.77;;;;;;;18.13;100.00;102099.31;5050163;28;20222;-73
2023/06/25 04:17:47;;;;;;;16.87;14.73;;;;;;;18.21;100.00;102095.94;5041673;28;20288;-73
2023/06/25 04:20:13;;;;;;;16.40;14.67;;;;;;;18.27;100.00;102092.53;5041865;28;20201;-72
2023/06/25 04:22:39;;;;;;;16.67;14.87;;;;;;;18.33;100.00;102093.47;5039627;28;20284;-73
2023/06/25 04:25:05;;;;;;;17.97;15.77;;;;;;;18.40;100.00;102089.19;5052475;28;20194;-73
2023/06/25 04:27:30;;;;;;;18.97;16.40;;;;;;;18.45;100.00;102090.97;5054751;28;20667;-72
2023/06/25 04:29:56;;;;;;;18.17;15.50;;;;;;;18.49;100.00;102081.50;5051814;28;20233;-73
2023/06/25 04:32:21;;;;;;;17.10;15.40;;;;;;;18.56;100.00;102085.88;5042407;28;20192;-74
2023/06/25 04:34:47;;;;;;;17.67;15.43;;;;;;;18.65;100.00;102094.56;5040472;28;20237;-73
2023/06/25 04:37:13;;;;;;;19.60;16.37;;;;;;;18.73;100.00;102089.44;5038784;28;20225;-73
2023/06/25 04:39:39;;;;;;;17.37;15.33;;;;;;;18.83;100.00;102088.66;5046563;28;20185;-73
2023/06/25 04:42:05;;;;;;;20.13;17.30;;;;;;;18.92;100.00;102091.25;5047580;28;20201;-73
2023/06/25 04:44:31;;;;;;;20.13;17.23;;;;;;;19.02;100.00;102091.34;5052020;28;20194;-73
2023/06/25 04:46:58;;;;;;;21.70;18.43;;;;;;;19.17;100.00;102086.19;5036925;28;20248;-73
2023/06/25 04:49:23;;;;;;;21.00;18.40;;;;;;;19.31;100.00;102086.31;5040767;28;20195;-73
2023/06/25 04:51:49;;;;;;;22.57;18.57;;;;;;;19.38;100.00;102082.84;5040927;28;20185;-73
2023/06/25 04:54:15;;;;;;;24.53;20.03;;;;;;;19.46;100.00;102091.53;5039806;28;20554;-73
2023/06/25 04:56:40;;;;;;;22.37;18.70;;;;;;;19.52;100.00;102092.44;5038132;28;20585;-73
2023/06/25 04:59:06;;;;;;;23.87;19.90;;;;;;;19.60;100.00;102088.13;5038524;28;20190;-73
2023/06/25 05:01:32;;;;;;;25.17;18.83;;;;;;;19.76;100.00;102084.69;5042417;28;20953;-73
2023/06/25 05:03:58;;;;;;;23.87;18.60;;;;;;;19.92;100.00;102085.59;5040937;28;20292;-73
2023/06/25 05:06:24;;;;;;;21.20;18.37;;;;;;;20.04;100.00;102086.47;5039706;28;20816;-73
2023/06/25 05:08:49;;;;;;;23.33;18.80;;;;;;;20.16;100.00;102085.63;5040194;28;20201;-72
2023/06/25 05:11:15;;;;;;;21.97;18.47;;;;;;;20.22;100.00;102083.91;5036140;28;20195;-72
2023/06/25 05:13:41;;;;;;;23.57;18.47;;;;;;;20.33;100.00;102083.91;5039465;28;20191;-73
2023/06/25 05:16:06;;;;;;;23.83;18.87;;;;;;;20.31;100.00;102096.06;5042104;28;20296;-72
2023/06/25 05:18:31;;;;;;;19.37;17.17;;;;;;;20.39;100.00;102081.28;5040596;28;20285;-72
2023/06/25 05:20:57;;;;;;;20.70;16.30;;;;;;;20.54;100.00;102089.97;5040885;28;20722;-72
2023/06/25 05:23:24;;;;;;;20.50;17.17;;;;;;;20.61;100.00;102078.69;5038830;28;20536;-72
2023/06/25 05:25:50;;;;;;;20.63;17.77;;;;;;;20.56;100.00;102084.75;5046673;28;20699;-71
2023/06/25 05:28:15;;;;;;;19.27;16.27;;;;;;;20.54;100.00;102083.91;5039583;28;20225;-73
2023/06/25 05:30:41;;;;;;;20.70;17.17;;;;;;;20.51;100.00;102081.28;5045191;28;20742;-72
2023/06/25 05:33:06;;;;;;;21.83;16.90;;;;;;;20.58;100.00;102083.00;5039352;28;20276;-72
2023/06/25 05:35:32;;;;;;;19.87;15.77;;;;;;;20.62;100.00;102084.72;5042256;28;20218;-72
2023/06/25 05:37:57;;;;;;;16.67;14.10;;;;;;;20.64;100.00;102078.66;5038696;28;20194;-72
2023/06/25 05:40:24;;;;;;;19.27;14.67;;;;;;;20.68;100.00;102077.78;5038505;28;20198;-72
2023/06/25 05:42:49;;;;;;;16.93;14.63;;;;;;;20.76;100.00;102069.94;5039483;28;20209;-71
2023/06/25 05:45:15;;;;;;;19.37;15.23;;;;;;;21.01;100.00;102071.66;5041945;28;20214;-72
2023/06/25 05:47:40;;;;;;;20.67;15.60;;;;;;;21.14;100.00;102070.75;5040431;28;20198;-72
2023/06/25 05:50:06;;;;;;;20.37;15.70;;;;;;;21.27;100.00;102062.84;5040629;28;20229;-71
2023/06/25 05:52:32;;;;;;;17.83;15.90;;;;;;;21.15;100.00;102062.91;5040486;28;20676;-72
2023/06/25 05:54:57;;;;;;;16.73;15.03;;;;;;;21.25;100.00;102067.22;5043243;28;20279;-72
2023/06/25 05:57:25;;;;;;;17.53;14.50;;;;;;;21.43;100.00;102067.09;5029629;28;20218;-72
2023/06/25 05:59:50;;;;;;;20.00;16.03;;;;;;;21.47;100.00;102065.38;5045604;28;20201;-72
2023/06/25 06:02:16;;;;;;;20.13;16.47;;;;;;;21.67;100.00;102069.59;5044923;28;20550;-72
2023/06/25 06:04:41;;;;;;;18.57;14.37;;;;;;;21.81;100.00;102067.78;5041822;28;20756;-72
2023/06/25 06:07:07;;;;;;;16.73;13.30;;;;;;;21.94;100.00;102071.16;5037914;28;20299;-73
2023/06/25 06:09:32;;;;;;;17.53;14.43;;;;;;;22.05;100.00;102065.00;5040710;28;20198;-71
2023/06/25 06:11:58;;;;;;;17.57;14.97;;;;;;;22.05;100.00;102069.34;5036971;28;20232;-71
2023/06/25 06:14:23;;;;;;;16.27;14.57;;;;;;;22.19;100.00;102064.88;5043298;28;20193;-71
2023/06/25 06:16:49;;;;;;;17.87;13.87;;;;;;;22.36;100.00;102073.41;5046785;28;20206;-72
2023/06/25 06:19:14;;;;;;;17.97;14.20;;;;;;;22.49;100.00;102067.25;5043748;28;20247;-72
2023/06/25 06:21:40;;;;;;;15.10;12.57;;;;;;;22.64;100.00;102072.31;5041303;28;20669;-72
2023/06/25 06:24:05;;;;;;;12.83;11.53;;;;;;;22.68;100.00;102054.84;5036993;28;20194;-74
2023/06/25 06:26:31;;;;;;;12.70;11.50;;;;;;;22.84;100.00;102066.88;5033800;28;20217;-72
2023/06/25 06:28:56;;;;;;;12.90;11.10;;;;;;;22.97;100.00;102058.88;5038980;28;20338;-72
2023/06/25 06:31:22;;;;;;;13.88;11.43;;;;;;;23.00;100.00;102057.97;5040859;28;20197;-72
2023/06/25 06:33:47;;;;;;;12.48;9.48;;;;;;;23.08;100.00;102045.69;5041932;28;20200;-73
2023/06/25 06:36:13;;;;;;;12.10;7.57;;;;;;;23.17;100.00;102025.53;5039051;28;20222;-72
2023/06/25 06:38:39;;;;;;;9.88;6.95;;;;;;;23.33;100.00;102016.59;5042214;28;20204;-73
2023/06/25 06:41:04;;;;;;;11.23;7.90;;;;;;;23.45;100.00;102002.50;5037005;28;20202;-73
2023/06/25 06:43:30;;;;;;;9.45;8.45;;;;;;;23.53;100.00;102008.47;5041320;28;20208;-72
2023/06/25 06:45:56;;;;;;;8.57;7.30;;;;;;;23.66;100.00;102015.25;5052192;28;20612;-73
2023/06/25 06:48:21;;;;;;;9.13;8.23;;;;;;;23.79;100.00;102011.53;5036204;28;20198;-72
2023/06/25 06:50:47;;;;;;;10.27;8.20;;;;;;;23.88;100.00;101998.31;5046389;28;20207;-73
2023/06/25 06:53:13;;;;;;;9.43;7.30;;;;;;;24.04;100.00;101987.56;5038414;28;20202;-73
2023/06/25 06:55:38;;;;;;;10.25;8.98;;;;;;;24.06;100.00;102013.72;5041724;28;20591;-73
2023/06/25 06:58:04;;;;;;;11.57;10.32;;;;;;;23.85;100.00;102048.94;5050589;28;20231;-72
2023/06/25 07:00:30;;;;;;;12.32;9.88;;;;;;;24.07;100.00;102025.97;5043532;28;20232;-71
2023/06/25 07:02:57;;;;;;;13.05;9.68;;;;;;;23.99;100.00;101984.19;5040601;28;20206;-72
2023/06/25 07:05:23;;;;;;;11.15;9.18;;;;;;;24.27;100.00;101959.22;5037868;28;20634;-71
2023/06/25 07:07:49;;;;;;;11.52;9.85;;;;;;;24.10;100.00;101961.31;5041952;28;20280;-71
2023/06/25 07:10:14;;;;;;;11.55;10.35;;;;;;;24.30;100.00;101959.19;5052290;28;20244;-73
2023/06/25 07:12:40;;;;;;;10.15;9.05;;;;;;;24.67;100.00;101962.00;5048420;28;20189;-71
2023/06/25 07:15:06;;;;;;;11.60;9.65;;;;;;;24.38;100.00;101943.31;5043534;28;20574;-71
2023/06/25 07:17:31;;;;;;;10.63;9.45;;;;;;;24.61;100.00;101917.53;5034899;28;20213;-73
2023/06/25 07:19:57;;;;;;;11.15;9.13;;;;;;;24.17;100.00;101936.72;5040348;28;20208;-71
2023/06/25 07:22:22;;;;;;;10.63;8.65;;;;;;;24.30;100.00;101932.09;5039597;28;20195;-71
2023/06/25 07:24:48;;;;;;;13.73;8.88;;;;;;;24.45;100.00;101923.97;5039403;28;20178;-72
2023/06/25 07:27:13;;;;;;;9.07;7.70;;;;;;;24.78;100.00;101904.94;5043886;28;20593;-72
2023/06/25 07:29:39;;;;;;;8.93;7.88;;;;;;;25.07;100.00;101887.69;5046870;28;20197;-72
2023/06/25 07:32:05;;;;;;;10.85;8.43;;;;;;;25.26;100.00;101895.94;5041108;28;20240;-71
2023/06/25 07:34:31;;;;;;;10.10;8.00;;;;;;;25.36;100.00;101898.34;5042864;28;20193;-73
2023/06/25 07:36:56;;;;;;;10.02;7.63;;;;;;;25.44;100.00;101900.78;5043346;28;20282;-73
2023/06/25 07:39:31;;;;;;;10.00;7.50;;;;;;;25.36;100.00;101837.16;5045483;28;20556;-73
2023/06/25 07:41:57;;;;;;;8.35;7.40;;;;;;;25.52;100.00;101855.13;5046393;28;20197;-72
2023/06/25 07:44:23;;;;;;;10.38;8.38;;;;;;;25.26;100.00;101841.78;5047650;28;20660;-72
2023/06/25 07:46:49;;;;;;;9.32;8.00;;;;;;;25.62;100.00;101829.47;5042587;28;20245;-74
2023/06/25 07:49:15;;;;;;;9.80;8.27;;;;;;;25.83;100.00;101837.63;5038655;28;20193;-72
2023/06/25 07:51:43;;;;;;;10.05;8.70;;;;;;;25.55;100.00;101834.00;5044807;28;20185;-72
2023/06/25 07:54:09;;;;;;;9.57;7.97;;;;;;;25.61;100.00;101836.50;5041205;28;20190;-73
2023/06/25 07:56:34;;;;;;;7.78;6.97;;;;;;;25.90;100.00;101846.19;5048647;28;20229;-72
2023/06/25 07:59:00;;;;;;;9.85;7.93;;;;;;;25.81;100.00;101833.31;5047981;28;20204;-73
2023/06/25 08:01:25;;;;;;;8.35;7.38;;;;;;;26.01;100.00;101828.44;5045611;28;20245;-73
2023/06/25 08:03:51;;;;;;;8.57;7.57;;;;;;;25.97;100.00;101826.78;5043698;28;20255;-74
2023/06/25 08:06:16;;;;;;;7.88;6.90;;;;;;;25.99;100.00;101819.72;5044209;28;20216;-73
2023/06/25 08:08:42;;;;;;;10.13;8.35;;;;;;;26.18;100.00;101845.44;5047894;28;20196;-73
2023/06/25 08:11:07;;;;;;;9.25;7.93;;;;;;;26.61;95.81;101806.47;5049033;28;20190;-74
2023/06/25 08:13:32;;;;;;;9.25;7.10;;;;;;;26.35;90.18;101766.97;5050464;28;20218;-73
2023/06/25 08:15:58;;;;;;;10.02;7.53;;;;;;;26.73;97.19;101802.59;5046461;28;20253;-73
2023/06/25 08:18:23;;;;;;;12.43;8.07;;;;;;;26.27;100.00;101839.03;5040553;28;20206;-72
2023/06/25 08:20:49;;;;;;;8.27;7.18;;;;;;;26.58;95.72;101806.59;5044179;28;20193;-73
2023/06/25 08:23:14;;;;;;;10.57;7.85;;;;;;;26.76;89.02;101756.03;5042850;28;20206;-73
2023/06/25 08:25:40;;;;;;;7.93;7.15;;;;;;;26.56;92.73;101773.31;5058055;28;20213;-73
2023/06/25 08:28:05;;;;;;;7.38;6.68;;;;;;;26.63;82.73;101740.72;5045559;28;20202;-73
2023/06/25 08:30:30;;;;;;;7.85;6.57;;;;;;;26.58;89.06;101754.03;5047050;28;20186;-73
2023/06/25 08:32:56;;;;;;;8.05;6.57;;;;;;;26.62;90.66;101774.00;5043946;28;20243;-73
2023/06/25 08:35:21;;;;;;;9.63;8.02;;;;;;;26.40;91.17;101782.59;5039893;28;20283;-73
2023/06/25 08:37:47;;;;;;;8.95;7.20;;;;;;;26.42;92.77;101794.78;5051552;28;20538;-73
2023/06/25 08:40:13;;;;;;;8.48;7.57;;;;;;;26.65;88.31;101763.41;5045455;28;20309;-72
2023/06/25 08:42:42;;;;;;;10.65;8.85;;;;;;;26.52;93.37;101787.47;5050700;28;20564;-75
2023/06/25 08:45:09;;;;;;;9.65;7.65;;;;;;;26.94;94.00;101794.03;5046411;28;20190;-71
2023/06/25 08:47:38;;;;;;;11.13;8.15;;;;;;;27.11;87.73;101761.00;5048539;28;20201;-72
2023/06/25 08:50:05;;;;;;;11.85;9.38;;;;;;;27.22;83.26;101744.88;5039731;28;20195;-71
2023/06/25 08:52:30;;;;;;;10.95;8.52;;;;;;;27.24;84.99;101748.31;5050827;28;20307;-71
2023/06/25 08:54:56;;;;;;;8.85;7.80;;;;;;;27.81;84.76;101741.00;5043954;28;20681;-71
2023/06/25 08:57:22;;;;;;;8.23;7.35;;;;;;;27.24;83.34;101728.13;5049287;28;20198;-71
2023/06/25 08:59:47;;;;;;;8.23;7.25;;;;;;;26.99;90.31;101774.53;5043396;28;20221;-72
2023/06/25 09:02:13;;;;;;;9.15;8.25;;;;;;;27.16;84.58;101751.16;5043185;28;20763;-72
2023/06/25 09:04:39;;;;;;;9.20;8.30;;;;;;;27.48;80.98;101727.25;5041560;28;20284;-72
2023/06/25 09:07:08;;;;;;;9.13;8.23;;;;;;;27.36;84.69;101727.66;5047529;28;20203;-71
2023/06/25 09:09:34;;;;;;;9.75;8.93;;;;;;;27.16;83.95;101739.78;5050963;28;20278;-71
2023/06/25 09:12:00;;;;;;;9.18;8.23;;;;;;;27.40;79.22;101715.28;5051199;28;20202;-71
2023/06/25 09:14:26;;;;;;;9.05;8.25;;;;;;;27.59;83.06;101734.75;5052866;28;20566;-70
2023/06/25 09:16:51;;;;;;;9.55;8.57;;;;;;;27.63;83.10;101742.47;5043327;28;20236;-71
2023/06/25 09:19:21;;;;;;;9.85;8.82;;;;;;;27.99;78.46;101701.63;5043112;28;20738;-75
2023/06/25 09:21:48;;;;;;;9.48;8.57;;;;;;;28.68;77.37;101705.88;5045020;28;20189;-71
2023/06/25 09:24:18;;;;;;;9.45;8.55;;;;;;;28.54;72.32;101679.22;5036091;28;20708;-71
2023/06/25 09:26:54;;;;;;;9.52;8.63;;;;;;;28.16;76.09;101696.56;5046181;28;20571;-71
2023/06/25 09:29:21;;;;;;;8.88;7.72;;;;;;;28.23;73.04;101686.66;5042907;28;20312;-71
2023/06/25 09:31:48;;;;;;;9.45;8.55;;;;;;;28.76;68.00;101666.88;5043969;28;20255;-70
2023/06/25 09:34:15;;;;;;;9.13;8.23;;;;;;;28.53;68.55;101654.66;5040179;28;20671;-71
2023/06/25 09:36:41;;;;;;;9.18;8.27;;;;;;;28.19;65.59;101653.44;5060467;28;20209;-72
2023/06/25 09:39:09;;;;;;;9.35;8.27;;;;;;;28.40;66.50;101655.22;5050905;28;20252;-73
2023/06/25 09:41:36;;;;;;;7.95;7.25;;;;;;;28.56;68.33;101677.41;5050034;28;20619;-74
2023/06/25 09:44:04;;;;;;;7.20;6.50;;;;;;;29.31;65.31;101660.94;5049003;28;20197;-73
2023/06/25 09:46:33;;;;;;;8.63;6.90;;;;;;;29.65;59.36;101619.75;5039583;28;20683;-70
2023/06/25 09:49:01;;;;;;;7.18;6.15;;;;;;;30.08;57.17;101619.41;5041539;28;20198;-73
2023/06/25 09:51:31;;;;;;;5.85;5.35;;;;;;;30.42;58.29;101625.75;5039200;28;20202;-71
2023/06/25 09:54:02;;;;;;;7.93;6.30;;;;;;;30.67;54.56;101592.72;5051275;28;20196;-74
2023/06/25 09:56:28;;;;;;;6.43;5.82;;;;;;;30.77;53.18;101591.28;5051352;28;20253;-73
2023/06/25 09:58:54;;;;;;;7.13;6.00;;;;;;;30.17;49.71;101567.06;5045750;28;20239;-70
2023/06/25 10:01:20;;;;;;;6.65;5.60;;;;;;;30.02;49.90;101585.34;5045817;28;20592;-73
2023/06/25 10:03:45;;;;;;;6.95;6.18;;;;;;;30.49;54.16;101633.28;5039544;28;20205;-73
2023/06/25 10:06:11;;;;;;;8.50;7.30;;;;;;;29.87;51.84;101609.03;5037852;28;20218;-73
2023/06/25 10:08:37;;;;;;;7.22;6.53;;;;;;;30.41;57.85;101656.59;5052281;28;20287;-72
2023/06/25 10:11:04;;;;;;;6.85;6.22;;;;;;;30.30;51.35;101602.53;5050964;28;20271;-72
2023/06/25 10:13:30;;;;;;;6.28;5.78;;;;;;;31.18;53.35;101624.38;5049073;28;20187;-72
2023/06/25 10:16:01;;;;;;;7.15;6.15;;;;;;;31.56;49.72;101588.75;5057304;28;20606;-73
2023/06/25 10:18:27;;;;;;;7.05;6.10;;;;;;;31.19;49.18;101594.31;5041037;28;20202;-71
2023/06/25 10:21:01;;;;;;;6.93;6.18;;;;;;;31.08;50.42;101598.47;5043749;28;20201;-72
2023/06/25 10:23:29;;;;;;;7.22;6.10;;;;;;;31.76;55.13;101646.00;5065517;28;20202;-72
2023/06/25 10:25:58;;;;;;;7.28;6.22;;;;;;;31.86;47.82;101579.09;5051765;28;20209;-72
2023/06/25 10:28:31;;;;;;;5.88;5.38;;;;;;;32.06;47.06;101573.53;5045091;28;20256;-73
2023/06/25 10:31:00;;;;;;;6.63;6.13;;;;;;;31.92;47.65;101588.50;5031528;28;20208;-72
2023/06/25 10:33:29;;;;;;;6.50;5.88;;;;;;;32.08;47.38;101600.78;5037327;28;20217;-72
2023/06/25 10:35:56;;;;;;;7.15;6.30;;;;;;;32.23;47.56;101599.91;5036657;28;20261;-73
2023/06/25 10:38:23;;;;;;;8.43;6.63;;;;;;;31.97;47.47;101582.00;5047089;28;20841;-73
2023/06/25 10:40:49;;;;;;;7.18;6.47;;;;;;;32.16;47.24;101587.94;5048086;28;20227;-72
2023/06/25 10:43:19;;;;;;;8.38;6.43;;;;;;;32.18;45.52;101580.75;5042994;28;20197;-74
2023/06/25 10:45:50;;;;;;;6.72;6.07;;;;;;;31.91;46.96;101581.50;5044668;28;20302;-73
2023/06/25 10:48:16;;;;;;;7.68;6.60;;;;;;;31.97;46.73;101584.66;5053171;28;20677;-73
2023/06/25 10:50:41;;;;;;;7.15;6.55;;;;;;;31.78;46.33;101576.03;5045224;28;20220;-72
2023/06/25 10:53:13;;;;;;;7.30;6.60;;;;;;;31.41;48.02;101594.91;5050961;28;20280;-73
2023/06/25 10:55:43;;;;;;;6.75;6.15;;;;;;;31.48;48.40;101611.31;5042370;28;20224;-73
2023/06/25 10:58:09;;;;;;;7.30;6.53;;;;;;;31.28;50.91;101632.72;5046410;28;20217;-72
2023/06/25 11:00:35;;;;;;;6.80;6.18;;;;;;;31.13;50.13;101630.84;5049424;28;20651;-72
2023/06/25 11:03:01;;;;;;;6.97;6.38;;;;;;;31.10;47.81;101607.16;5044276;28;20198;-73
2023/06/25 11:05:35;;;;;;;6.50;5.90;;;;;;;31.66;49.11;101624.38;5035870;28;21011;-72